createdAt,value
2023-02-21T00:01:49.328Z,4.53
2023-02-21T00:04:34.673Z,4.43
2023-02-21T00:07:22.131Z,4.25
2023-02-21T00:10:07.719Z,4.18
2023-02-21T00:12:53.512Z,4.43
2023-02-21T00:15:39.168Z,4.30
2023-02-21T00:18:24.480Z,4.43
2023-02-21T00:21:09.956Z,3.97
2023-02-21T00:23:56.926Z,4.90
2023-02-21T00:26:42.635Z,4.50
2023-02-21T00:29:28.577Z,4.25
2023-02-21T00:32:14.452Z,4.50
2023-02-21T00:35:00.174Z,4.70
2023-02-21T00:37:46.273Z,4.53
2023-02-21T00:40:34.291Z,4.50
2023-02-21T00:43:20.047Z,4.50
2023-02-21T00:46:05.487Z,4.65
2023-02-21T00:48:51.310Z,5.03
2023-02-21T00:51:37.070Z,4.65
2023-02-21T00:54:23.013Z,4.45
2023-02-21T00:57:10.286Z,4.40
2023-02-21T00:59:55.776Z,4.50
2023-02-21T01:02:41.349Z,4.15
2023-02-21T01:05:27.200Z,4.50
2023-02-21T01:08:12.584Z,4.70
2023-02-21T01:10:58.254Z,4.85
2023-02-21T01:13:45.367Z,4.70
2023-02-21T01:16:30.706Z,4.10
2023-02-21T01:19:16.483Z,4.50
2023-02-21T01:22:02.173Z,4.90
2023-02-21T01:24:47.717Z,4.90
2023-02-21T01:27:33.346Z,4.43
2023-02-21T01:30:20.394Z,4.70
2023-02-21T01:33:05.669Z,4.88
2023-02-21T01:35:51.332Z,4.88
2023-02-21T01:38:36.999Z,5.05
2023-02-21T01:41:22.965Z,4.32
2023-02-21T01:44:17.597Z,4.72
2023-02-21T01:47:04.738Z,4.97
2023-02-21T01:49:52.611Z,4.70
2023-02-21T01:52:38.455Z,5.00
2023-02-21T01:55:25.819Z,4.68
2023-02-21T01:58:12.827Z,5.30
2023-02-21T02:00:59.363Z,5.10
2023-02-21T02:03:46.777Z,4.93
2023-02-21T02:06:35.293Z,4.82
2023-02-21T02:09:33.012Z,4.72
2023-02-21T02:12:25.800Z,4.38
2023-02-21T02:15:16.028Z,4.95
2023-02-21T02:18:02.925Z,4.38
2023-02-21T02:20:54.925Z,5.07
2023-02-21T02:23:47.409Z,4.82
2023-02-21T02:27:00.376Z,4.90
2023-02-21T02:29:52.674Z,4.75
2023-02-21T02:32:43.415Z,4.63
2023-02-21T02:35:15.786Z,4.97
2023-02-21T02:37:51.066Z,4.80
2023-02-21T02:40:24.510Z,4.97
2023-02-21T02:43:04.286Z,4.40
2023-02-21T02:45:37.498Z,4.82
2023-02-21T02:48:12.693Z,5.05
2023-02-21T02:50:43.194Z,5.13
2023-02-21T02:53:11.468Z,4.93
2023-02-21T02:55:45.146Z,5.10
2023-02-21T02:58:13.889Z,4.93
2023-02-21T03:00:47.032Z,4.55
2023-02-21T03:03:48.641Z,5.00
2023-02-21T03:06:34.784Z,5.10
2023-02-21T03:09:13.974Z,4.97
2023-02-21T03:11:50.541Z,4.82
2023-02-21T03:14:21.481Z,4.50
2023-02-21T03:16:53.914Z,4.88
2023-02-21T03:19:25.813Z,4.85
2023-02-21T03:21:59.581Z,5.00
2023-02-21T03:24:29.256Z,5.18
2023-02-21T03:27:01.561Z,5.15
2023-02-21T03:29:30.170Z,4.68
2023-02-21T03:32:10.802Z,5.20
2023-02-21T03:34:39.595Z,4.30
2023-02-21T03:37:10.766Z,4.25
2023-02-21T03:42:07.027Z,4.75
2023-02-21T03:44:35.217Z,4.45
2023-02-21T03:47:03.379Z,4.25
2023-02-21T03:49:31.584Z,4.95
2023-02-21T03:51:59.719Z,4.40
2023-02-21T03:54:29.253Z,4.45
2023-02-21T03:56:57.422Z,5.07
2023-02-21T03:59:25.742Z,4.57
2023-02-21T04:01:53.944Z,4.63
2023-02-21T04:04:22.096Z,4.45
2023-02-21T04:06:50.299Z,5.30
2023-02-21T04:09:18.474Z,5.30
2023-02-21T04:11:48.397Z,4.70
2023-02-21T04:14:16.607Z,5.00
2023-02-21T04:16:44.871Z,5.00
2023-02-21T04:19:12.951Z,5.00
2023-02-21T04:21:41.130Z,4.43
2023-02-21T04:24:09.379Z,5.00
2023-02-21T04:26:37.554Z,4.60
2023-02-21T04:29:07.386Z,4.38
2023-02-21T04:31:35.603Z,4.70
2023-02-21T04:34:11.719Z,4.75
2023-02-21T04:36:40.566Z,4.28
2023-02-21T04:39:09.306Z,4.20
2023-02-21T04:41:37.494Z,4.40
2023-02-21T04:44:07.427Z,4.15
2023-02-21T04:46:35.997Z,4.28
2023-02-21T04:49:04.196Z,4.20
2023-02-21T04:51:32.650Z,3.80
2023-02-21T04:54:00.821Z,4.00
2023-02-21T04:56:29.361Z,3.90
2023-02-21T04:58:58.039Z,3.78
2023-02-21T05:01:30.757Z,3.72
2023-02-21T05:03:59.130Z,3.90
2023-02-21T05:06:29.346Z,3.60
2023-02-21T05:08:57.859Z,4.05
2023-02-21T05:11:26.616Z,3.70
2023-02-21T05:13:54.792Z,4.15
2023-02-21T05:16:23.292Z,3.90
2023-02-21T05:18:53.302Z,3.78
2023-02-21T05:21:21.756Z,4.20
2023-02-21T05:23:56.845Z,3.47
2023-02-21T05:26:27.301Z,4.10
2023-02-21T05:28:56.849Z,3.53
2023-02-21T05:31:25.151Z,3.88
2023-02-21T05:33:54.787Z,4.18
2023-02-21T05:36:24.561Z,3.60
2023-02-21T05:38:55.502Z,4.15
2023-02-21T05:41:23.926Z,3.53
2023-02-21T05:43:52.682Z,4.05
2023-02-21T05:46:23.825Z,4.00
2023-02-21T05:51:22.106Z,3.80
2023-02-21T05:53:50.594Z,3.30
2023-02-21T05:56:19.285Z,3.90
2023-02-21T05:58:47.625Z,4.00
2023-02-21T06:01:16.105Z,3.95
2023-02-21T06:03:44.853Z,3.58
2023-02-21T06:06:13.059Z,3.30
2023-02-21T06:08:47.302Z,3.53
2023-02-21T06:11:16.159Z,3.33
2023-02-21T06:13:44.556Z,3.70
2023-02-21T06:16:12.715Z,3.88
2023-02-21T06:18:40.948Z,3.85
2023-02-21T06:21:09.202Z,3.50
2023-02-21T06:23:37.482Z,3.67
2023-02-21T06:26:07.122Z,3.13
2023-02-21T06:28:35.453Z,3.75
2023-02-21T06:31:05.430Z,3.40
2023-02-21T06:33:34.187Z,3.63
2023-02-21T06:36:06.376Z,3.53
2023-02-21T06:38:34.653Z,3.70
2023-02-21T06:41:06.365Z,3.90
2023-02-21T06:43:37.039Z,3.78
2023-02-21T06:46:05.617Z,4.10
2023-02-21T06:48:33.838Z,3.60
2023-02-21T06:51:02.062Z,3.40
2023-02-21T06:53:30.222Z,3.70
2023-02-21T06:55:58.421Z,4.00
2023-02-21T06:58:26.963Z,3.53
2023-02-21T07:00:58.557Z,3.47
2023-02-21T07:03:27.065Z,3.72
2023-02-21T07:05:55.204Z,3.88
2023-02-21T07:08:23.396Z,3.72
2023-02-21T07:10:51.605Z,4.13
2023-02-21T07:13:22.362Z,3.60
2023-02-21T07:15:50.743Z,3.55
2023-02-21T07:18:20.337Z,3.78
2023-02-21T07:20:49.505Z,3.55
2023-02-21T07:23:17.840Z,3.70
2023-02-21T07:25:46.048Z,3.55
2023-02-21T07:28:14.273Z,3.90
2023-02-21T07:30:42.595Z,3.78
2023-02-21T07:33:10.834Z,4.03
2023-02-21T07:35:40.454Z,3.70
2023-02-21T07:38:08.695Z,3.75
2023-02-21T07:40:36.807Z,3.47
2023-02-21T07:43:04.961Z,3.50
2023-02-21T07:45:33.394Z,3.95
2023-02-21T07:48:01.595Z,3.78
2023-02-21T07:50:30.002Z,3.80
2023-02-21T07:52:59.837Z,3.92
2023-02-21T07:55:28.115Z,3.90
2023-02-21T07:57:56.295Z,3.78
2023-02-21T08:00:25.398Z,3.65
2023-02-21T08:02:54.060Z,3.97
2023-02-21T08:05:23.212Z,4.40
2023-02-21T08:07:51.479Z,3.80
2023-02-21T08:10:25.808Z,3.85
2023-02-21T08:12:54.458Z,3.42
2023-02-21T08:15:23.024Z,4.10
2023-02-21T08:17:52.194Z,4.15
2023-02-21T08:20:20.568Z,4.07
2023-02-21T08:22:48.817Z,4.03
2023-02-21T08:25:17.969Z,3.97
2023-02-21T08:27:53.528Z,3.65
2023-02-21T08:30:21.965Z,3.53
2023-02-21T08:32:51.320Z,3.67
2023-02-21T08:35:21.114Z,4.28
2023-02-21T08:37:51.485Z,3.78
2023-02-21T08:40:21.294Z,3.90
2023-02-21T08:42:52.749Z,3.80
2023-02-21T08:45:22.651Z,3.50
2023-02-21T08:47:51.567Z,4.05
2023-02-21T08:50:21.609Z,3.88
2023-02-21T08:52:50.443Z,4.28
2023-02-21T08:55:19.720Z,4.18
2023-02-21T08:57:50.122Z,3.80
2023-02-21T09:00:23.294Z,3.77
2023-02-21T09:02:51.984Z,4.35
2023-02-21T09:05:24.429Z,4.00
2023-02-21T09:07:55.198Z,3.90
2023-02-21T09:10:23.754Z,4.05
2023-02-21T09:12:52.112Z,3.88
2023-02-21T09:15:21.742Z,3.80
2023-02-21T09:17:50.837Z,3.75
2023-02-21T09:20:21.624Z,3.92
2023-02-21T09:22:49.778Z,3.83
2023-02-21T09:25:21.302Z,4.32
2023-02-21T09:27:49.629Z,4.45
2023-02-21T09:30:21.745Z,3.72
2023-02-21T09:32:52.360Z,4.28
2023-02-21T09:35:20.744Z,3.92
2023-02-21T09:37:48.982Z,3.65
2023-02-21T09:40:25.193Z,4.00
2023-02-21T09:42:55.890Z,3.92
2023-02-21T09:45:25.116Z,4.00
2023-02-21T09:47:58.302Z,3.85
2023-02-21T09:50:31.189Z,4.50
2023-02-21T09:53:01.104Z,4.28
2023-02-21T09:55:32.472Z,4.47
2023-02-21T09:58:00.848Z,4.32
2023-02-21T10:00:34.765Z,4.07
2023-02-21T10:03:20.458Z,4.32
2023-02-21T10:05:53.414Z,3.78
2023-02-21T10:08:37.042Z,4.45
2023-02-21T10:11:17.805Z,3.88
2023-02-21T10:13:57.079Z,3.75
2023-02-21T10:16:29.651Z,4.25
2023-02-21T10:19:05.760Z,4.03
2023-02-21T10:21:38.273Z,3.95
2023-02-21T10:24:14.076Z,3.70
2023-02-21T10:26:48.537Z,3.35
2023-02-21T10:29:24.087Z,4.05
2023-02-21T10:31:56.622Z,3.85
2023-02-21T10:34:29.377Z,3.75
2023-02-21T10:37:05.174Z,3.72
2023-02-21T10:39:40.529Z,3.75
2023-02-21T10:42:14.501Z,3.75
2023-02-21T10:44:42.968Z,3.70
2023-02-21T10:47:19.689Z,3.83
2023-02-21T10:49:55.393Z,3.60
2023-02-21T10:52:23.640Z,3.80
2023-02-21T10:55:03.509Z,3.60
2023-02-21T10:57:34.840Z,3.58
2023-02-21T11:00:10.327Z,3.60
2023-02-21T11:02:41.191Z,3.45
2023-02-21T11:05:17.164Z,3.28
2023-02-21T11:07:59.480Z,3.35
2023-02-21T11:10:33.646Z,3.30
2023-02-21T11:13:15.779Z,3.08
2023-02-21T11:15:44.603Z,3.50
2023-02-21T11:18:18.863Z,3.30
2023-02-21T11:20:49.046Z,3.50
2023-02-21T11:23:26.562Z,3.47
2023-02-21T11:26:01.768Z,3.42
2023-02-21T11:28:30.127Z,3.40
2023-02-21T11:31:14.548Z,3.45
2023-02-21T11:33:50.053Z,3.38
2023-02-21T11:36:22.189Z,3.45
2023-02-21T11:39:06.847Z,3.92
2023-02-21T11:41:39.074Z,3.47
2023-02-21T11:44:27.324Z,3.70
2023-02-21T11:47:14.093Z,3.35
2023-02-21T11:49:52.190Z,3.38
2023-02-21T11:52:26.220Z,3.70
2023-02-21T11:54:54.405Z,3.30
2023-02-21T11:57:30.347Z,3.75
2023-02-21T12:00:08.199Z,3.60
2023-02-21T12:03:00.969Z,3.00
2023-02-21T12:05:51.212Z,3.50
2023-02-21T12:08:42.226Z,3.50
2023-02-21T12:11:29.369Z,3.33
2023-02-21T12:14:12.939Z,3.33
2023-02-21T12:16:52.669Z,2.88
2023-02-21T12:19:34.128Z,3.30
2023-02-21T12:22:13.311Z,3.10
2023-02-21T12:24:56.060Z,3.22
2023-02-21T12:27:32.783Z,3.17
2023-02-21T12:30:28.086Z,3.30
2023-02-21T12:33:07.512Z,3.20
2023-02-21T12:36:13.268Z,3.40
2023-02-21T12:38:51.345Z,3.00
2023-02-21T12:41:31.792Z,3.45
2023-02-21T12:44:08.130Z,3.03
2023-02-21T12:46:40.968Z,3.42
2023-02-21T12:49:15.066Z,2.95
2023-02-21T12:51:48.021Z,3.17
2023-02-21T12:54:20.229Z,2.92
2023-02-21T12:56:57.347Z,3.20
2023-02-21T12:59:32.732Z,3.50
2023-02-21T13:02:07.190Z,3.30
2023-02-21T13:04:44.170Z,3.35
2023-02-21T13:07:25.784Z,3.20
2023-02-21T13:10:01.972Z,3.40
2023-02-21T13:12:37.205Z,3.00
2023-02-21T13:15:17.983Z,3.50
2023-02-21T13:17:53.174Z,3.05
2023-02-21T13:20:24.443Z,3.30
2023-02-21T13:23:49.701Z,2.90
2023-02-21T13:26:35.473Z,3.38
2023-02-21T13:29:11.722Z,3.00
2023-02-21T13:31:46.085Z,3.35
2023-02-21T13:34:19.323Z,3.42
2023-02-21T13:36:49.148Z,3.28
2023-02-21T13:39:22.024Z,3.40
2023-02-21T13:41:55.881Z,3.15
2023-02-21T13:44:29.044Z,3.20
2023-02-21T13:47:13.962Z,2.97
2023-02-21T13:50:22.970Z,3.47
2023-02-21T13:53:04.184Z,3.00
2023-02-21T13:58:46.706Z,3.30
2023-02-21T14:01:36.597Z,3.05
2023-02-21T14:04:43.534Z,3.30
2023-02-21T14:07:12.046Z,3.17
2023-02-21T14:09:42.975Z,3.40
2023-02-21T14:12:15.975Z,3.00
2023-02-21T14:14:46.558Z,3.25
2023-02-21T14:17:17.197Z,3.28
2023-02-21T14:19:49.662Z,3.10
2023-02-21T14:22:22.374Z,2.65
2023-02-21T14:24:53.532Z,3.08
2023-02-21T14:30:30.314Z,2.88
2023-02-21T14:33:18.125Z,3.03
2023-02-21T14:35:58.512Z,3.00
2023-02-21T14:38:30.149Z,3.10
2023-02-21T14:41:11.966Z,3.15
2023-02-21T14:43:56.135Z,2.78
2023-02-21T14:46:54.212Z,3.03
2023-02-21T14:49:56.154Z,3.20
2023-02-21T14:52:51.970Z,3.10
2023-02-21T14:55:58.516Z,3.05
2023-02-21T14:58:45.998Z,3.38
2023-02-21T15:01:26.225Z,3.10
2023-02-21T15:04:03.179Z,2.95
2023-02-21T15:06:34.364Z,3.13
2023-02-21T15:11:41.873Z,3.25
2023-02-21T15:14:15.662Z,3.20
2023-02-21T15:16:47.394Z,3.10
2023-02-21T15:19:30.830Z,3.17
2023-02-21T15:22:19.975Z,3.13
2023-02-21T15:25:14.515Z,2.58
2023-02-21T15:28:02.422Z,2.95
2023-02-21T15:30:36.920Z,3.42
2023-02-21T15:33:23.322Z,3.03
2023-02-21T15:35:54.805Z,2.95
2023-02-21T15:38:32.168Z,3.30
2023-02-21T15:41:06.208Z,2.63
2023-02-21T15:43:46.537Z,3.22
2023-02-21T15:46:19.486Z,3.10
2023-02-21T15:48:48.794Z,2.90
2023-02-21T15:51:17.606Z,2.92
2023-02-21T15:54:12.254Z,2.80
2023-02-21T15:56:40.791Z,3.03
2023-02-21T15:59:21.302Z,2.90
2023-02-21T16:02:17.489Z,3.10
2023-02-21T16:04:47.558Z,2.67
2023-02-21T16:07:21.519Z,3.03
2023-02-21T16:09:58.321Z,2.58
2023-02-21T16:12:36.478Z,2.90
2023-02-21T16:15:09.481Z,2.40
2023-02-21T16:17:39.912Z,2.78
2023-02-21T16:20:17.968Z,2.30
2023-02-21T16:25:56.429Z,2.83
2023-02-21T16:28:24.615Z,3.10
2023-02-21T16:30:53.206Z,2.88
2023-02-21T16:33:21.468Z,2.90
2023-02-21T16:35:49.958Z,2.65
2023-02-21T16:38:21.237Z,2.80
2023-02-21T16:40:51.068Z,2.85
2023-02-21T16:43:21.160Z,3.28
2023-02-21T16:45:52.315Z,2.63
2023-02-21T16:50:51.612Z,3.00
2023-02-21T16:53:21.290Z,2.70
2023-02-21T16:55:51.837Z,2.63
2023-02-21T16:58:26.350Z,3.05
2023-02-21T17:00:57.065Z,2.63
2023-02-21T17:03:25.777Z,3.00
2023-02-21T17:05:54.959Z,2.75
2023-02-21T17:08:23.368Z,2.78
2023-02-21T17:10:53.288Z,2.70
2023-02-21T17:13:21.427Z,2.80
2023-02-21T17:15:49.642Z,3.05
2023-02-21T17:18:17.872Z,2.80
2023-02-21T17:20:46.914Z,2.65
2023-02-21T17:23:15.157Z,2.55
2023-02-21T17:25:43.361Z,2.85
2023-02-21T17:28:13.062Z,2.88
2023-02-21T17:30:41.264Z,2.50
2023-02-21T17:33:11.009Z,2.90
2023-02-21T17:35:39.186Z,2.60
2023-02-21T17:38:07.398Z,2.72
2023-02-21T17:40:35.728Z,2.60
2023-02-21T17:43:07.721Z,2.85
2023-02-21T17:45:37.730Z,2.60
2023-02-21T17:48:06.864Z,2.50
2023-02-21T17:50:35.095Z,3.20
2023-02-21T17:53:03.282Z,3.00
2023-02-21T17:55:33.170Z,3.25
2023-02-21T17:58:02.049Z,3.00
2023-02-21T18:00:34.195Z,3.00
2023-02-21T18:03:04.448Z,3.22
2023-02-21T18:05:33.279Z,2.87
2023-02-21T18:08:01.527Z,2.95
2023-02-21T18:10:29.874Z,2.85
2023-02-21T18:12:58.458Z,2.60
2023-02-21T18:15:28.939Z,3.30
2023-02-21T18:17:58.456Z,2.85
2023-02-21T18:20:28.053Z,2.78
2023-02-21T18:22:56.210Z,3.10
2023-02-21T18:25:24.573Z,2.80
2023-02-21T18:27:52.944Z,2.75
2023-02-21T18:30:22.369Z,2.88
2023-02-21T18:32:50.996Z,3.20
2023-02-21T18:35:19.689Z,3.65
2023-02-21T18:37:49.688Z,3.40
2023-02-21T18:40:19.968Z,2.92
2023-02-21T18:42:48.663Z,3.20
2023-02-21T18:45:16.915Z,3.10
2023-02-21T18:47:45.170Z,3.10
2023-02-21T18:50:13.486Z,3.13
2023-02-21T18:52:41.692Z,2.95
2023-02-21T18:55:12.668Z,3.13
2023-02-21T18:57:42.166Z,2.80
2023-02-21T19:00:13.084Z,3.08
2023-02-21T19:02:41.308Z,3.35
2023-02-21T19:05:11.054Z,2.95
2023-02-21T19:07:39.355Z,2.85
2023-02-21T19:10:07.854Z,2.88
2023-02-21T19:12:37.720Z,3.72
2023-02-21T19:15:06.791Z,3.53
2023-02-21T19:17:35.820Z,3.38
2023-02-21T19:20:05.866Z,3.25
2023-02-21T19:22:34.119Z,3.15
2023-02-21T19:25:02.297Z,3.40
2023-02-21T19:27:30.497Z,3.10
2023-02-21T19:30:00.250Z,3.30
2023-02-21T19:32:28.520Z,3.15
2023-02-21T19:34:56.685Z,3.25
2023-02-21T19:37:25.214Z,3.10
2023-02-21T19:39:53.428Z,3.15
2023-02-21T19:42:21.602Z,3.28
2023-02-21T19:44:49.823Z,3.60
2023-02-21T19:47:19.486Z,3.60
2023-02-21T19:49:47.656Z,3.17
2023-02-21T19:52:15.913Z,3.53
2023-02-21T19:54:44.115Z,3.00
2023-02-21T19:57:12.248Z,3.55
2023-02-21T19:59:40.502Z,3.30
2023-02-21T20:02:10.713Z,3.42
2023-02-21T20:04:41.417Z,3.13
2023-02-21T20:07:09.553Z,3.40
2023-02-21T20:09:37.748Z,3.58
2023-02-21T20:12:06.357Z,3.22
2023-02-21T20:14:34.718Z,3.35
2023-02-21T20:17:02.899Z,3.47
2023-02-21T20:19:31.074Z,3.25
2023-02-21T20:22:00.598Z,3.42
2023-02-21T20:24:28.749Z,3.40
2023-02-21T20:26:56.878Z,3.70
2023-02-21T20:29:25.801Z,3.20
2023-02-21T20:31:55.022Z,3.88
2023-02-21T20:34:24.415Z,3.33
2023-02-21T20:36:52.728Z,3.47
2023-02-21T20:39:28.319Z,3.33
2023-02-21T20:41:57.102Z,3.28
2023-02-21T20:44:26.125Z,3.25
2023-02-21T20:46:54.639Z,3.28
2023-02-21T20:49:22.936Z,3.58
2023-02-21T20:51:51.116Z,3.60
2023-02-21T20:54:22.058Z,3.75
2023-02-21T20:56:51.904Z,3.60
2023-02-21T20:59:22.493Z,3.28
2023-02-21T21:01:51.109Z,3.17
2023-02-21T21:04:21.527Z,3.60
2023-02-21T21:06:50.323Z,3.60
2023-02-21T21:09:28.693Z,3.42
2023-02-21T21:12:00.791Z,3.60
2023-02-21T21:14:29.934Z,3.65
2023-02-21T21:16:58.828Z,3.70
2023-02-21T21:19:27.415Z,3.78
2023-02-21T21:21:55.671Z,3.92
2023-02-21T21:24:24.304Z,3.85
2023-02-21T21:26:53.275Z,3.78
2023-02-21T21:29:25.020Z,3.67
2023-02-21T21:31:55.404Z,3.90
2023-02-21T21:34:25.502Z,3.80
2023-02-21T21:36:54.464Z,4.03
2023-02-21T21:39:23.663Z,4.43
2023-02-21T21:41:52.770Z,3.75
2023-02-21T21:44:23.559Z,4.30
2023-02-21T21:46:52.621Z,4.13
2023-02-21T21:49:23.146Z,4.03
2023-02-21T21:51:51.701Z,4.25
2023-02-21T21:54:21.596Z,4.57
2023-02-21T21:56:50.163Z,3.88
2023-02-21T21:59:20.369Z,4.03
2023-02-21T22:01:49.992Z,4.40
2023-02-21T22:04:19.161Z,4.18
2023-02-21T22:06:48.158Z,4.32
2023-02-21T22:09:16.466Z,4.50
2023-02-21T22:11:46.563Z,4.10
2023-02-21T22:14:16.964Z,4.32
2023-02-21T22:16:46.811Z,3.92
2023-02-21T22:19:17.299Z,4.65
2023-02-21T22:21:45.706Z,4.35
2023-02-21T22:24:16.672Z,4.65
2023-02-21T22:26:45.694Z,4.65
2023-02-21T22:29:15.615Z,4.20
2023-02-21T22:31:44.303Z,4.30
2023-02-21T22:34:23.420Z,4.43
2023-02-21T22:36:54.468Z,4.38
2023-02-21T22:39:23.668Z,4.80
2023-02-21T22:41:52.049Z,4.63
2023-02-21T22:44:20.806Z,4.65
2023-02-21T22:46:58.733Z,4.97
2023-02-21T22:49:27.624Z,4.80
2023-02-21T22:51:58.089Z,4.82
2023-02-21T22:54:26.967Z,4.90
2023-02-21T22:57:00.669Z,4.40
2023-02-21T22:59:28.900Z,4.10
2023-02-21T23:01:58.374Z,4.63
2023-02-21T23:04:27.035Z,5.03
2023-02-21T23:06:58.091Z,5.28
2023-02-21T23:09:27.491Z,4.80
2023-02-21T23:11:58.405Z,4.97
2023-02-21T23:14:28.020Z,5.28
2023-02-21T23:16:58.408Z,4.75
2023-02-21T23:19:27.798Z,5.30
2023-02-21T23:21:57.988Z,5.18
2023-02-21T23:24:28.122Z,4.93
2023-02-21T23:26:56.453Z,5.00
2023-02-21T23:29:27.057Z,5.57
2023-02-21T23:31:58.275Z,5.32
2023-02-21T23:34:40.428Z,5.65
2023-02-21T23:37:12.871Z,5.25
2023-02-21T23:39:42.064Z,4.97
2023-02-21T23:42:11.154Z,4.97
2023-02-21T23:44:39.655Z,5.43
2023-02-21T23:47:07.823Z,5.45
2023-02-21T23:49:40.643Z,5.28
2023-02-21T23:52:10.215Z,5.03
2023-02-21T23:54:38.555Z,5.70
2023-02-21T23:57:07.680Z,5.78
2023-02-21T23:59:36.547Z,5.15
